createdAt,value
2022-10-22T00:02:25.991Z,100.00
2022-10-22T00:04:54.057Z,100.00
2022-10-22T00:07:20.713Z,100.00
2022-10-22T00:09:47.314Z,100.00
2022-10-22T00:12:14.697Z,100.00
2022-10-22T00:14:41.317Z,100.00
2022-10-22T00:17:11.216Z,100.00
2022-10-22T00:19:38.573Z,100.00
2022-10-22T00:22:05.870Z,100.00
2022-10-22T00:24:32.812Z,100.00
2022-10-22T00:26:59.221Z,100.00
2022-10-22T00:29:25.758Z,100.00
2022-10-22T00:31:52.202Z,100.00
2022-10-22T00:34:20.080Z,100.00
2022-10-22T00:36:46.564Z,100.00
2022-10-22T00:39:16.158Z,100.00
2022-10-22T00:41:43.488Z,100.00
2022-10-22T00:44:28.422Z,100.00
2022-10-22T00:46:54.886Z,100.00
2022-10-22T00:49:21.349Z,100.00
2022-10-22T00:51:47.770Z,100.00
2022-10-22T00:54:14.385Z,100.00
2022-10-22T00:56:40.814Z,100.00
2022-10-22T01:01:38.900Z,100.00
2022-10-22T01:04:05.516Z,100.00
2022-10-22T01:06:33.154Z,100.00
2022-10-22T01:09:18.523Z,100.00
2022-10-22T01:11:52.703Z,100.00
2022-10-22T01:14:24.951Z,100.00
2022-10-22T01:17:06.392Z,100.00
2022-10-22T01:19:42.200Z,100.00
2022-10-22T01:22:15.795Z,100.00
2022-10-22T01:24:51.947Z,100.00
2022-10-22T01:27:18.324Z,100.00
2022-10-22T01:29:53.689Z,100.00
2022-10-22T01:32:25.260Z,100.00
2022-10-22T01:34:57.452Z,100.00
2022-10-22T01:37:25.532Z,100.00
2022-10-22T01:39:52.035Z,100.00
2022-10-22T01:42:18.521Z,100.00
2022-10-22T01:44:45.038Z,100.00
2022-10-22T01:47:15.871Z,100.00
2022-10-22T01:49:57.403Z,100.00
2022-10-22T01:52:23.777Z,100.00
2022-10-22T01:54:53.306Z,100.00
2022-10-22T01:57:19.679Z,100.00
2022-10-22T01:59:52.252Z,100.00
2022-10-22T02:02:37.069Z,100.00
2022-10-22T02:05:07.314Z,100.00
2022-10-22T02:07:36.948Z,100.00
2022-10-22T02:10:04.140Z,100.00
2022-10-22T02:12:32.322Z,100.00
2022-10-22T02:14:59.040Z,100.00
2022-10-22T02:17:28.623Z,100.00
2022-10-22T02:19:57.165Z,100.00
2022-10-22T02:22:24.077Z,100.00
2022-10-22T02:24:50.634Z,100.00
2022-10-22T02:27:27.100Z,100.00
2022-10-22T02:30:01.741Z,100.00
2022-10-22T02:32:46.740Z,100.00
2022-10-22T02:35:15.057Z,100.00
2022-10-22T02:37:42.077Z,100.00
2022-10-22T02:40:09.298Z,100.00
2022-10-22T02:42:37.246Z,100.00
2022-10-22T02:45:04.085Z,100.00
2022-10-22T02:47:30.577Z,100.00
2022-10-22T02:49:57.015Z,100.00
2022-10-22T02:52:23.415Z,100.00
2022-10-22T02:54:49.951Z,100.00
2022-10-22T02:57:16.503Z,100.00
2022-10-22T02:59:42.950Z,100.00
2022-10-22T03:02:09.450Z,100.00
2022-10-22T03:04:35.835Z,100.00
2022-10-22T03:07:02.226Z,100.00
2022-10-22T03:09:28.822Z,100.00
2022-10-22T03:11:55.298Z,100.00
2022-10-22T03:14:22.047Z,100.00
2022-10-22T03:16:48.499Z,100.00
2022-10-22T03:19:14.929Z,100.00
2022-10-22T03:21:44.106Z,100.00
2022-10-22T03:24:30.210Z,100.00
2022-10-22T03:26:56.792Z,100.00
2022-10-22T03:29:24.719Z,100.00
2022-10-22T03:31:51.980Z,100.00
2022-10-22T03:34:18.439Z,100.00
2022-10-22T03:36:45.058Z,100.00
2022-10-22T03:39:13.128Z,100.00
2022-10-22T03:41:39.548Z,100.00
2022-10-22T03:44:06.091Z,100.00
2022-10-22T03:46:32.545Z,100.00
2022-10-22T03:48:58.949Z,100.00
2022-10-22T03:51:28.953Z,100.00
2022-10-22T03:53:55.711Z,100.00
2022-10-22T03:56:22.555Z,100.00
2022-10-22T03:58:49.057Z,100.00
2022-10-22T04:01:15.503Z,100.00
2022-10-22T04:03:42.036Z,100.00
2022-10-22T04:06:10.051Z,100.00
2022-10-22T04:08:36.635Z,100.00
2022-10-22T04:11:03.326Z,100.00
2022-10-22T04:13:29.824Z,100.00
2022-10-22T04:15:56.247Z,100.00
2022-10-22T04:18:23.685Z,100.00
2022-10-22T04:20:51.689Z,100.00
2022-10-22T04:23:18.064Z,100.00
2022-10-22T04:25:44.455Z,100.00
2022-10-22T04:28:10.967Z,100.00
2022-10-22T04:30:37.398Z,100.00
2022-10-22T04:33:03.858Z,100.00
2022-10-22T04:35:30.349Z,100.00
2022-10-22T04:37:56.860Z,100.00
2022-10-22T04:40:23.329Z,100.00
2022-10-22T04:42:49.708Z,100.00
2022-10-22T04:45:16.260Z,100.00
2022-10-22T04:47:42.761Z,100.00
2022-10-22T04:50:09.608Z,100.00
2022-10-22T04:52:36.023Z,100.00
2022-10-22T04:55:02.562Z,100.00
2022-10-22T04:57:32.275Z,100.00
2022-10-22T04:59:58.730Z,100.00
2022-10-22T05:02:25.197Z,100.00
2022-10-22T05:04:51.654Z,100.00
2022-10-22T05:07:18.138Z,100.00
2022-10-22T05:09:44.726Z,100.00
2022-10-22T05:12:11.142Z,100.00
2022-10-22T05:14:41.416Z,100.00
2022-10-22T05:17:10.548Z,100.00
2022-10-22T05:19:37.692Z,100.00
2022-10-22T05:22:04.744Z,100.00
2022-10-22T05:24:32.560Z,100.00
2022-10-22T05:26:59.659Z,100.00
2022-10-22T05:29:26.716Z,100.00
2022-10-22T05:31:53.465Z,100.00
2022-10-22T05:34:20.183Z,100.00
2022-10-22T05:36:46.972Z,100.00
2022-10-22T05:39:13.456Z,100.00
2022-10-22T05:41:39.933Z,100.00
2022-10-22T05:44:06.469Z,100.00
2022-10-22T05:46:36.194Z,100.00
2022-10-22T05:49:03.835Z,100.00
2022-10-22T05:51:31.415Z,100.00
2022-10-22T05:54:00.096Z,100.00
2022-10-22T05:56:27.343Z,100.00
2022-10-22T05:58:53.922Z,100.00
2022-10-22T06:01:25.071Z,100.00
2022-10-22T06:03:55.787Z,100.00
2022-10-22T06:06:25.254Z,100.00
2022-10-22T06:08:52.590Z,100.00
2022-10-22T06:11:19.899Z,100.00
2022-10-22T06:13:46.755Z,100.00
2022-10-22T06:16:13.570Z,100.00
2022-10-22T06:18:40.087Z,100.00
2022-10-22T06:21:11.324Z,100.00
2022-10-22T06:23:38.475Z,100.00
2022-10-22T06:26:05.525Z,100.00
2022-10-22T06:28:32.458Z,100.00
2022-10-22T06:30:59.261Z,100.00
2022-10-22T06:33:26.038Z,100.00
2022-10-22T06:35:52.511Z,100.00
2022-10-22T06:38:19.166Z,100.00
2022-10-22T06:40:45.727Z,100.00
2022-10-22T06:43:12.573Z,100.00
2022-10-22T06:45:39.236Z,100.00
2022-10-22T06:48:06.080Z,100.00
2022-10-22T06:50:34.472Z,100.00
2022-10-22T06:53:00.895Z,100.00
2022-10-22T06:55:27.349Z,100.00
2022-10-22T06:57:54.927Z,100.00
2022-10-22T07:00:22.361Z,100.00
2022-10-22T07:02:57.789Z,100.00
2022-10-22T07:05:26.303Z,100.00
2022-10-22T07:07:52.684Z,100.00
2022-10-22T07:10:19.118Z,100.00
2022-10-22T07:12:45.580Z,100.00
2022-10-22T07:15:12.296Z,100.00
2022-10-22T07:20:10.303Z,100.00
2022-10-22T07:22:36.739Z,100.00
2022-10-22T07:25:07.415Z,100.00
2022-10-22T07:27:33.989Z,100.00
2022-10-22T07:30:01.516Z,100.00
2022-10-22T07:32:28.120Z,100.00
2022-10-22T07:34:54.631Z,100.00
2022-10-22T07:37:22.109Z,100.00
2022-10-22T07:39:49.157Z,100.00
2022-10-22T07:42:15.576Z,100.00
2022-10-22T07:44:42.037Z,100.00
2022-10-22T07:47:08.424Z,100.00
2022-10-22T07:49:34.847Z,100.00
2022-10-22T07:52:01.358Z,100.00
2022-10-22T07:54:27.865Z,100.00
2022-10-22T07:56:54.267Z,100.00
2022-10-22T07:59:20.784Z,100.00
2022-10-22T08:01:47.278Z,100.00
2022-10-22T08:04:13.805Z,100.00
2022-10-22T08:06:42.532Z,100.00
2022-10-22T08:09:12.132Z,100.00
2022-10-22T08:11:39.167Z,100.00
2022-10-22T08:14:05.584Z,100.00
2022-10-22T08:16:31.984Z,100.00
2022-10-22T08:18:58.523Z,100.00
2022-10-22T08:21:25.126Z,100.00
2022-10-22T08:23:51.656Z,100.00
2022-10-22T08:26:18.319Z,100.00
2022-10-22T08:28:44.739Z,100.00
2022-10-22T08:31:11.588Z,100.00
2022-10-22T08:33:39.040Z,100.00
2022-10-22T08:36:05.652Z,100.00
2022-10-22T08:38:32.070Z,100.00
2022-10-22T08:41:10.015Z,100.00
2022-10-22T08:43:36.471Z,100.00
2022-10-22T08:46:10.663Z,100.00
2022-10-22T08:48:43.430Z,100.00
2022-10-22T08:51:16.079Z,100.00
2022-10-22T08:54:06.007Z,100.00
2022-10-22T08:56:33.777Z,100.00
2022-10-22T08:59:04.375Z,100.00
2022-10-22T09:01:37.994Z,100.00
2022-10-22T09:04:07.153Z,100.00
2022-10-22T09:06:35.417Z,100.00
2022-10-22T09:09:02.642Z,100.00
2022-10-22T09:11:34.896Z,100.00
2022-10-22T09:14:01.839Z,100.00
2022-10-22T09:16:47.262Z,100.00
2022-10-22T09:19:13.730Z,100.00
2022-10-22T09:21:52.723Z,100.00
2022-10-22T09:24:32.951Z,100.00
2022-10-22T09:27:00.910Z,100.00
2022-10-22T09:29:32.295Z,100.00
2022-10-22T09:31:59.067Z,100.00
2022-10-22T09:34:25.501Z,100.00
2022-10-22T09:37:02.517Z,100.00
2022-10-22T09:39:32.689Z,100.00
2022-10-22T09:41:59.192Z,100.00
2022-10-22T09:44:25.676Z,100.00
2022-10-22T09:46:52.329Z,100.00
2022-10-22T09:49:21.312Z,100.00
2022-10-22T09:51:53.672Z,100.00
2022-10-22T09:54:22.342Z,100.00
2022-10-22T09:57:09.029Z,100.00
2022-10-22T09:59:41.269Z,100.00
2022-10-22T10:02:19.940Z,100.00
2022-10-22T10:04:57.059Z,100.00
2022-10-22T10:07:25.427Z,100.00
2022-10-22T10:09:52.768Z,100.00
2022-10-22T10:12:34.367Z,100.00
2022-10-22T10:15:19.644Z,100.00
2022-10-22T10:18:18.103Z,100.00
2022-10-22T10:20:49.796Z,100.00
2022-10-22T10:23:34.897Z,100.00
2022-10-22T10:26:04.286Z,100.00
2022-10-22T10:28:33.750Z,100.00
2022-10-22T10:31:00.371Z,100.00
2022-10-22T10:33:32.860Z,98.99
2022-10-22T10:36:09.742Z,100.00
2022-10-22T10:38:43.138Z,100.00
2022-10-22T10:41:28.517Z,99.29
2022-10-22T10:44:27.485Z,99.66
2022-10-22T10:47:00.340Z,99.11
2022-10-22T10:49:27.379Z,99.78
2022-10-22T10:51:53.864Z,99.05
2022-10-22T10:54:27.543Z,100.00
2022-10-22T10:56:58.358Z,96.86
2022-10-22T10:59:54.884Z,94.40
2022-10-22T11:02:39.295Z,92.23
2022-10-22T11:05:24.738Z,92.69
2022-10-22T11:07:58.088Z,93.47
2022-10-22T11:10:29.017Z,95.80
2022-10-22T11:12:57.844Z,98.31
2022-10-22T11:15:27.248Z,100.00
2022-10-22T11:17:56.613Z,100.00
2022-10-22T11:20:28.348Z,100.00
2022-10-22T11:23:17.591Z,100.00
2022-10-22T11:25:44.856Z,100.00
2022-10-22T11:28:25.146Z,100.00
2022-10-22T11:30:56.711Z,100.00
2022-10-22T11:33:24.857Z,100.00
2022-10-22T11:35:53.209Z,100.00
2022-10-22T11:38:24.022Z,100.00
2022-10-22T11:40:57.411Z,100.00
2022-10-22T11:43:35.717Z,100.00
2022-10-22T11:46:08.092Z,100.00
2022-10-22T11:48:36.806Z,100.00
2022-10-22T11:51:03.345Z,100.00
2022-10-22T11:53:34.420Z,100.00
2022-10-22T11:56:03.905Z,100.00
2022-10-22T11:58:33.008Z,100.00
2022-10-22T12:01:02.506Z,100.00
2022-10-22T12:03:31.927Z,100.00
2022-10-22T12:06:15.738Z,100.00
2022-10-22T12:08:47.087Z,100.00
2022-10-22T12:11:15.537Z,100.00
2022-10-22T12:13:51.149Z,100.00
2022-10-22T12:16:27.219Z,100.00
2022-10-22T12:19:13.967Z,100.00
2022-10-22T12:21:42.104Z,100.00
2022-10-22T12:24:13.000Z,100.00
2022-10-22T12:26:40.103Z,100.00
2022-10-22T12:29:10.900Z,100.00
2022-10-22T12:31:38.583Z,100.00
2022-10-22T12:34:05.459Z,100.00
2022-10-22T12:36:33.083Z,100.00
2022-10-22T12:38:59.938Z,100.00
2022-10-22T12:41:33.429Z,100.00
2022-10-22T12:44:00.940Z,100.00
2022-10-22T12:46:28.412Z,100.00
2022-10-22T12:48:56.050Z,100.00
2022-10-22T12:51:24.377Z,100.00
2022-10-22T12:53:52.795Z,100.00
2022-10-22T12:56:35.949Z,98.97
2022-10-22T12:59:05.130Z,97.10
2022-10-22T13:01:34.142Z,92.64
2022-10-22T13:04:05.979Z,93.32
2022-10-22T13:06:34.118Z,94.44
2022-10-22T13:09:00.814Z,93.99
2022-10-22T13:11:40.912Z,94.89
2022-10-22T13:14:27.720Z,92.28
2022-10-22T13:17:02.937Z,89.77
2022-10-22T13:19:38.466Z,90.42
2022-10-22T13:22:04.999Z,90.32
2022-10-22T13:24:31.543Z,89.50
2022-10-22T13:26:57.963Z,90.68
2022-10-22T13:29:24.950Z,91.07
2022-10-22T13:31:52.475Z,90.88
2022-10-22T13:34:23.182Z,88.65
2022-10-22T13:36:49.649Z,85.33
2022-10-22T13:39:17.787Z,85.46
2022-10-22T13:41:44.390Z,86.47
2022-10-22T13:44:10.849Z,84.86
2022-10-22T13:46:43.013Z,83.53
2022-10-22T13:49:20.384Z,83.88
2022-10-22T13:51:47.163Z,83.96
2022-10-22T13:54:18.830Z,83.64
2022-10-22T13:56:45.401Z,85.13
2022-10-22T13:59:11.885Z,84.86
2022-10-22T14:01:38.933Z,84.48
2022-10-22T14:04:07.523Z,83.33
2022-10-22T14:09:08.881Z,83.64
2022-10-22T14:11:35.386Z,84.15
2022-10-22T14:14:08.708Z,84.10
2022-10-22T14:16:37.067Z,84.97
2022-10-22T14:19:04.488Z,84.59
2022-10-22T14:21:36.782Z,83.73
2022-10-22T14:24:03.263Z,85.88
2022-10-22T14:26:33.219Z,86.28
2022-10-22T14:29:15.681Z,84.62
2022-10-22T14:31:43.815Z,83.93
2022-10-22T14:34:12.021Z,83.63
2022-10-22T14:36:38.660Z,84.09
2022-10-22T14:39:05.161Z,83.45
2022-10-22T14:41:31.875Z,84.98
2022-10-22T14:43:59.924Z,84.58
2022-10-22T14:46:26.482Z,85.11
2022-10-22T14:48:52.968Z,85.98
2022-10-22T14:51:20.690Z,86.34
2022-10-22T14:53:47.672Z,86.71
2022-10-22T14:56:15.433Z,87.82
2022-10-22T14:58:42.078Z,88.53
2022-10-22T15:01:09.130Z,89.28
2022-10-22T15:03:35.988Z,90.51
2022-10-22T15:06:02.500Z,91.06
2022-10-22T15:08:28.943Z,91.88
2022-10-22T15:11:03.741Z,92.14
2022-10-22T15:13:30.437Z,92.59
2022-10-22T15:15:57.566Z,92.74
2022-10-22T15:18:24.307Z,92.13
2022-10-22T15:20:58.244Z,92.25
2022-10-22T15:23:25.747Z,91.32
2022-10-22T15:25:52.244Z,91.18
2022-10-22T15:28:18.728Z,90.98
2022-10-22T15:30:45.255Z,91.24
2022-10-22T15:33:11.665Z,89.96
2022-10-22T15:35:38.083Z,90.39
2022-10-22T15:38:06.710Z,90.44
2022-10-22T15:40:33.258Z,89.65
2022-10-22T15:42:59.722Z,88.95
2022-10-22T15:45:26.193Z,87.83
2022-10-22T15:47:52.580Z,88.08
2022-10-22T15:50:19.094Z,88.32
2022-10-22T15:52:45.517Z,88.34
2022-10-22T15:57:39.706Z,89.01
2022-10-22T16:00:07.311Z,89.02
2022-10-22T16:02:33.884Z,90.03
2022-10-22T16:05:00.388Z,90.46
2022-10-22T16:07:26.960Z,91.08
2022-10-22T16:09:57.043Z,91.14
2022-10-22T16:12:23.696Z,91.60
2022-10-22T16:14:51.060Z,91.93
2022-10-22T16:17:17.527Z,92.82
2022-10-22T16:19:43.947Z,93.42
2022-10-22T16:22:11.588Z,94.40
2022-10-22T16:24:41.330Z,95.21
2022-10-22T16:27:08.159Z,96.22
2022-10-22T16:29:34.844Z,97.11
2022-10-22T16:32:01.246Z,98.03
2022-10-22T16:34:28.280Z,98.64
2022-10-22T16:36:56.481Z,99.13
2022-10-22T16:39:23.666Z,99.78
2022-10-22T16:41:50.218Z,100.00
2022-10-22T16:44:16.707Z,100.00
2022-10-22T16:46:43.137Z,100.00
2022-10-22T16:49:09.716Z,100.00
2022-10-22T16:51:36.526Z,100.00
2022-10-22T16:54:04.633Z,100.00
2022-10-22T16:56:36.475Z,100.00
2022-10-22T16:59:02.929Z,100.00
2022-10-22T17:01:29.821Z,99.85
2022-10-22T17:03:59.050Z,99.40
2022-10-22T17:06:25.520Z,99.27
2022-10-22T17:08:52.292Z,98.74
2022-10-22T17:11:20.035Z,98.87
2022-10-22T17:13:47.223Z,99.27
2022-10-22T17:16:15.521Z,98.87
2022-10-22T17:18:42.670Z,99.42
2022-10-22T17:21:10.057Z,99.91
2022-10-22T17:23:36.600Z,99.87
2022-10-22T17:26:06.527Z,100.00
2022-10-22T17:28:33.631Z,100.00
2022-10-22T17:31:07.538Z,100.00
2022-10-22T17:33:35.052Z,100.00
2022-10-22T17:36:02.070Z,100.00
2022-10-22T17:38:28.826Z,100.00
2022-10-22T17:40:56.670Z,100.00
2022-10-22T17:43:23.117Z,100.00
2022-10-22T17:45:49.641Z,100.00
2022-10-22T17:48:16.135Z,100.00
2022-10-22T17:50:46.895Z,100.00
2022-10-22T17:53:16.114Z,100.00
2022-10-22T17:55:42.621Z,100.00
2022-10-22T17:58:09.091Z,100.00
2022-10-22T18:00:35.809Z,100.00
2022-10-22T18:03:02.252Z,100.00
2022-10-22T18:05:28.789Z,100.00
2022-10-22T18:07:56.486Z,100.00
2022-10-22T18:10:23.355Z,100.00
2022-10-22T18:12:49.934Z,100.00
2022-10-22T18:15:16.559Z,100.00
2022-10-22T18:17:43.081Z,100.00
2022-10-22T18:20:09.940Z,100.00
2022-10-22T18:22:36.452Z,100.00
2022-10-22T18:25:02.897Z,100.00
2022-10-22T18:27:29.297Z,100.00
2022-10-22T18:29:55.781Z,100.00
2022-10-22T18:32:22.240Z,100.00
2022-10-22T18:34:48.709Z,100.00
2022-10-22T18:37:15.512Z,100.00
2022-10-22T18:39:41.957Z,100.00
2022-10-22T18:42:08.391Z,100.00
2022-10-22T18:44:35.080Z,100.00
2022-10-22T18:47:01.550Z,100.00
2022-10-22T18:49:27.956Z,100.00
2022-10-22T18:51:54.491Z,100.00
2022-10-22T18:54:23.941Z,100.00
2022-10-22T18:56:51.344Z,100.00
2022-10-22T18:59:21.656Z,100.00
2022-10-22T19:01:48.376Z,100.00
2022-10-22T19:04:15.358Z,100.00
2022-10-22T19:06:45.251Z,100.00
2022-10-22T19:09:12.387Z,100.00
2022-10-22T19:11:38.943Z,100.00
2022-10-22T19:14:05.437Z,100.00
2022-10-22T19:16:32.000Z,100.00
2022-10-22T19:18:59.842Z,100.00
2022-10-22T19:21:26.312Z,100.00
2022-10-22T19:23:55.483Z,100.00
2022-10-22T19:26:24.066Z,100.00
2022-10-22T19:28:50.542Z,100.00
2022-10-22T19:31:18.237Z,100.00
2022-10-22T19:33:44.753Z,100.00
2022-10-22T19:36:12.509Z,100.00
2022-10-22T19:38:40.160Z,100.00
2022-10-22T19:41:07.633Z,100.00
2022-10-22T19:43:34.131Z,100.00
2022-10-22T19:46:00.689Z,100.00
2022-10-22T19:48:28.738Z,100.00
2022-10-22T19:51:03.089Z,100.00
2022-10-22T19:53:30.236Z,100.00
2022-10-22T19:55:57.881Z,100.00
2022-10-22T19:58:24.593Z,100.00
2022-10-22T20:00:51.121Z,100.00
2022-10-22T20:03:19.777Z,100.00
2022-10-22T20:05:46.969Z,100.00
2022-10-22T20:08:13.465Z,100.00
2022-10-22T20:10:39.962Z,100.00
2022-10-22T20:13:06.501Z,100.00
2022-10-22T20:15:33.124Z,100.00
2022-10-22T20:17:59.665Z,100.00
2022-10-22T20:20:26.626Z,100.00
2022-10-22T20:22:54.022Z,100.00
2022-10-22T20:25:20.417Z,100.00
2022-10-22T20:27:46.797Z,100.00
2022-10-22T20:30:14.237Z,100.00
2022-10-22T20:32:41.057Z,100.00
2022-10-22T20:35:07.805Z,100.00
2022-10-22T20:37:34.699Z,100.00
2022-10-22T20:40:01.156Z,100.00
2022-10-22T20:42:27.566Z,100.00
2022-10-22T20:44:54.004Z,100.00
2022-10-22T20:47:20.563Z,100.00
2022-10-22T20:49:47.094Z,100.00
2022-10-22T20:52:13.498Z,100.00
2022-10-22T20:54:42.518Z,100.00
2022-10-22T20:57:09.020Z,100.00
2022-10-22T20:59:36.071Z,100.00
2022-10-22T21:02:02.710Z,100.00
2022-10-22T21:04:31.099Z,100.00
2022-10-22T21:06:58.060Z,100.00
2022-10-22T21:09:24.753Z,100.00
2022-10-22T21:14:22.082Z,100.00
2022-10-22T21:16:52.915Z,100.00
2022-10-22T21:19:20.336Z,100.00
2022-10-22T21:21:46.782Z,100.00
2022-10-22T21:24:13.207Z,100.00
2022-10-22T21:26:40.945Z,100.00
2022-10-22T21:29:07.938Z,100.00
2022-10-22T21:31:34.489Z,100.00
2022-10-22T21:34:01.018Z,100.00
2022-10-22T21:36:27.475Z,100.00
2022-10-22T21:38:54.006Z,100.00
2022-10-22T21:41:22.080Z,100.00
2022-10-22T21:43:48.466Z,100.00
2022-10-22T21:46:22.250Z,100.00
2022-10-22T21:48:59.164Z,100.00
2022-10-22T21:51:26.018Z,100.00
2022-10-22T21:56:25.618Z,100.00
2022-10-22T21:58:52.358Z,100.00
2022-10-22T22:01:19.128Z,100.00
2022-10-22T22:03:47.881Z,100.00
2022-10-22T22:06:17.846Z,100.00
2022-10-22T22:08:46.948Z,100.00
2022-10-22T22:11:14.896Z,100.00
2022-10-22T22:13:41.753Z,100.00
2022-10-22T22:16:12.831Z,100.00
2022-10-22T22:18:39.919Z,100.00
2022-10-22T22:21:13.717Z,100.00
2022-10-22T22:23:42.266Z,100.00
2022-10-22T22:26:09.297Z,100.00
2022-10-22T22:28:36.146Z,100.00
2022-10-22T22:31:11.409Z,100.00
2022-10-22T22:33:37.851Z,100.00
2022-10-22T22:36:04.557Z,100.00
2022-10-22T22:38:30.959Z,100.00
2022-10-22T22:40:58.970Z,100.00
2022-10-22T22:43:25.537Z,100.00
2022-10-22T22:46:00.837Z,100.00
2022-10-22T22:48:27.941Z,100.00
2022-10-22T22:50:54.488Z,100.00
2022-10-22T22:53:20.999Z,100.00
2022-10-22T22:55:47.430Z,100.00
2022-10-22T22:58:13.820Z,100.00
2022-10-22T23:03:07.568Z,100.00
2022-10-22T23:05:36.158Z,100.00
2022-10-22T23:08:02.588Z,100.00
2022-10-22T23:10:29.003Z,100.00
2022-10-22T23:12:55.389Z,100.00
2022-10-22T23:15:21.809Z,100.00
2022-10-22T23:17:48.229Z,100.00
2022-10-22T23:20:14.674Z,100.00
2022-10-22T23:22:41.535Z,100.00
2022-10-22T23:25:08.397Z,100.00
2022-10-22T23:27:34.801Z,100.00
2022-10-22T23:30:01.268Z,100.00
2022-10-22T23:32:27.764Z,100.00
2022-10-22T23:34:54.200Z,100.00
2022-10-22T23:37:20.655Z,100.00
2022-10-22T23:39:47.094Z,100.00
2022-10-22T23:42:13.490Z,100.00
2022-10-22T23:44:39.967Z,100.00
2022-10-22T23:47:06.438Z,100.00
2022-10-22T23:49:32.991Z,100.00
2022-10-22T23:51:59.407Z,100.00
2022-10-22T23:54:25.843Z,100.00
2022-10-22T23:56:52.233Z,100.00
2022-10-22T23:59:18.654Z,100.00
